Blue Mound, Illinois
Current Conditions -  °F | °C
As of 2:15 AM on Tuesday 27 Jan 2015 (Local Time) from KTAZ Reporting Station
Haze Haze  
Wind Chill: 27°   Ceiling: 6500
Heat Index: 32°   Visibility: 5mi
Dew Point: 32°   Wind: 5mph
Humidity: 100%   Direction: 290°WNW
Pressure: 29.92"   Gusts: NA
Location:  39.7°N, 89.12°W
Report Text: KTAZ 270815Z AUTO 29004KT 5SM BR SCT050 OVC065 00/00 A2992 RMK AO2
Loading
Personal Weather Stations






























Interactive Weather Map New forecast layout! Learn more

10-Day Weather Forecast

Advertisements
Track Severe Weather on mobile